Time;durP1;ratioP1;P1;durP2;ratioP2;P2;SDS_P1;SDS_P2;PMS_P1;PMS_P2;Temp;Humidity;BMP_temperature;BMP_pressure;BME280_temperature;BME280_humidity;BME280_pressure;Samples;Min_cycle;Max_cycle;Signal;HPM_P1;HPM_P2
2022/04/12 00:01:04;;;;;;;7.10;6.20;;;;;;;10.48;42.26;97872.59;8346301;28;20238;-72
2022/04/12 00:05:11;;;;;;;8.00;6.20;;;;;;;10.42;42.47;97874.66;8317699;28;20299;-71
2022/04/12 00:09:32;;;;;;;6.70;6.00;;;;;;;10.35;41.95;97858.53;8379186;28;20439;-71
2022/04/12 00:13:35;;;;;;;9.87;6.17;;;;;;;10.28;41.37;97855.38;8379375;28;20227;-71
2022/04/12 00:22:04;;;;;;;6.57;5.53;;;;;;;10.27;40.58;97845.91;8353804;28;20231;-71
2022/04/12 00:26:07;;;;;;;9.23;5.67;;;;;;;10.44;41.16;97846.94;8382922;28;20231;-72
2022/04/12 00:30:12;;;;;;;7.73;5.60;;;;;;;10.48;40.42;97851.88;8384275;28;20227;-72
2022/04/12 00:34:16;;;;;;;8.53;5.73;;;;;;;10.04;40.74;97838.34;8384657;28;20232;-71
2022/04/12 00:38:22;;;;;;;8.83;5.27;;;;;;;10.22;41.00;97849.59;8384506;28;20246;-71
2022/04/12 00:42:25;;;;;;;6.50;5.30;;;;;;;10.25;40.57;97842.56;8384388;28;20239;-71
2022/04/12 00:46:28;;;;;;;9.67;5.67;;;;;;;10.26;41.39;97856.31;8384255;28;20246;-71
2022/04/12 00:50:33;;;;;;;8.30;5.43;;;;;;;10.28;40.75;97852.78;8383906;28;20227;-71
2022/04/12 00:54:37;;;;;;;6.67;4.83;;;;;;;10.19;41.28;97850.59;8383805;28;20558;-71
2022/04/12 00:58:45;;;;;;;9.77;5.20;;;;;;;10.25;41.46;97845.13;8383561;28;20231;-71
2022/04/12 01:02:48;;;;;;;7.03;5.03;;;;;;;10.17;41.63;97842.91;8350675;28;20426;-71
2022/04/12 01:06:52;;;;;;;8.80;5.10;;;;;;;10.17;42.02;97842.91;8349693;28;20236;-72
2022/04/12 01:10:58;;;;;;;5.53;4.93;;;;;;;10.19;42.05;97850.59;8350303;28;20557;-72
2022/04/12 01:15:14;;;;;;;6.73;5.20;;;;;;;10.12;41.75;97854.34;8350468;28;20240;-71
2022/04/12 01:19:18;;;;;;;6.17;4.90;;;;;;;10.02;41.83;97842.75;8382631;28;20232;-71
2022/04/12 01:23:39;;;;;;;7.97;5.50;;;;;;;10.08;42.38;97845.06;8383102;28;20236;-72
2022/04/12 01:27:43;;;;;;;6.90;4.80;;;;;;;9.86;42.11;97842.56;8374770;28;20235;-72
2022/04/12 01:31:48;;;;;;;5.37;4.80;;;;;;;9.84;42.17;97847.78;8382973;28;20231;-71
2022/04/12 01:35:51;;;;;;;7.13;5.13;;;;;;;9.91;42.46;97845.78;8382365;28;20238;-71
2022/04/12 01:39:54;;;;;;;7.60;4.87;;;;;;;9.89;42.50;97838.09;8382512;28;20238;-71
2022/04/12 01:43:58;;;;;;;8.27;4.87;;;;;;;9.92;42.41;97852.66;8383686;28;20238;-71
2022/04/12 01:48:01;;;;;;;5.77;4.90;;;;;;;9.84;42.39;97847.78;8384921;28;20218;-72
2022/04/12 01:52:05;;;;;;;6.60;4.90;;;;;;;9.71;42.26;97842.31;8384805;28;20363;-72
2022/04/12 01:56:08;;;;;;;6.67;5.03;;;;;;;9.62;42.39;97841.88;8384448;28;20228;-72
2022/04/12 02:00:13;;;;;;;8.23;5.00;;;;;;;9.73;42.89;97831.94;8383916;28;20227;-72
2022/04/12 02:04:16;;;;;;;7.27;4.83;;;;;;;9.74;43.21;97825.81;8358163;28;20200;-71
2022/04/12 02:08:19;;;;;;;7.00;4.93;;;;;;;9.77;42.50;97833.47;8356950;28;20566;-71
2022/04/12 02:12:22;;;;;;;5.70;4.70;;;;;;;9.78;42.05;97828.19;8348592;28;20232;-72
2022/04/12 02:16:26;;;;;;;8.40;5.20;;;;;;;9.73;42.70;97825.00;8348412;28;20542;-71
2022/04/12 02:20:29;;;;;;;5.83;4.57;;;;;;;9.60;43.25;97823.84;8348262;28;20235;-71
2022/04/12 02:24:32;;;;;;;6.97;4.80;;;;;;;9.52;43.22;97826.75;8348279;28;20394;-72
2022/04/12 02:28:35;;;;;;;6.47;5.20;;;;;;;9.49;42.66;97808.78;8348222;28;20235;-71
2022/04/12 02:32:40;;;;;;;8.40;5.23;;;;;;;9.57;42.28;97818.78;8348026;28;20242;-71
2022/04/12 02:36:43;;;;;;;6.30;5.20;;;;;;;9.52;42.66;97815.56;8347745;28;20238;-71
2022/04/12 02:40:46;;;;;;;5.50;4.80;;;;;;;9.54;42.86;97819.78;8347334;28;20232;-71
2022/04/12 02:44:49;;;;;;;7.50;5.00;;;;;;;9.47;42.49;97820.09;8346712;28;20228;-72
2022/04/12 02:48:53;;;;;;;8.30;4.93;;;;;;;9.53;43.09;97819.84;8346475;28;20228;-72
2022/04/12 02:52:56;;;;;;;6.87;5.40;;;;;;;9.50;43.05;97818.22;8347508;28;20228;-71
2022/04/12 02:56:59;;;;;;;7.10;5.37;;;;;;;9.49;42.90;97823.47;8347364;28;20453;-71
2022/04/12 03:01:02;;;;;;;6.63;5.17;;;;;;;9.35;42.90;97822.28;8347512;28;20240;-71
2022/04/12 03:05:10;;;;;;;7.47;5.40;;;;;;;9.17;43.38;97818.69;8314768;28;20232;-71
2022/04/12 03:09:13;;;;;;;6.70;5.40;;;;;;;9.16;43.59;97813.63;8322298;28;20299;-71
2022/04/12 03:13:16;;;;;;;5.73;4.93;;;;;;;9.09;43.80;97804.44;8314424;28;20445;-71
2022/04/12 03:17:20;;;;;;;7.77;5.17;;;;;;;9.10;44.43;97808.69;8314608;28;20240;-71
2022/04/12 03:21:24;;;;;;;6.70;5.43;;;;;;;9.13;44.46;97812.00;8314131;28;20235;-71
2022/04/12 03:25:27;;;;;;;6.57;4.93;;;;;;;9.10;43.95;97819.88;8314213;28;20232;-71
2022/04/12 03:29:30;;;;;;;8.17;5.37;;;;;;;9.04;43.77;97816.69;8314048;28;20247;-71
2022/04/12 03:33:33;;;;;;;6.87;5.10;;;;;;;9.02;43.79;97806.41;8314242;28;20228;-71
2022/04/12 03:37:39;;;;;;;11.10;5.37;;;;;;;8.96;43.96;97811.84;8313937;28;20233;-71
2022/04/12 03:41:41;;;;;;;6.33;5.30;;;;;;;8.95;44.61;97817.91;8314163;28;20240;-71
2022/04/12 03:45:44;;;;;;;9.00;5.50;;;;;;;8.88;44.62;97819.91;8314028;28;20233;-71
2022/04/12 03:49:48;;;;;;;6.53;5.37;;;;;;;8.73;44.95;97815.34;8314026;28;20232;-71
2022/04/12 03:53:52;;;;;;;8.23;6.13;;;;;;;8.85;45.24;97816.59;8313735;28;20236;-71
2022/04/12 03:57:55;;;;;;;7.00;5.33;;;;;;;9.02;44.47;97818.50;8314282;28;20427;-71
2022/04/12 04:01:58;;;;;;;8.70;5.40;;;;;;;8.96;44.69;97824.75;8320170;28;20229;-71
2022/04/12 04:06:01;;;;;;;7.53;5.80;;;;;;;8.94;45.11;97821.38;8319969;28;20244;-71
2022/04/12 04:10:06;;;;;;;6.87;5.90;;;;;;;8.75;45.15;97809.19;8319839;28;20247;-71
2022/04/12 04:14:10;;;;;;;8.60;5.60;;;;;;;8.86;44.72;97815.69;8319178;28;20232;-71
2022/04/12 04:18:13;;;;;;;11.13;6.17;;;;;;;8.85;45.12;97819.16;8319258;28;20244;-71
2022/04/12 04:22:16;;;;;;;8.93;5.63;;;;;;;8.83;45.10;97818.41;8319349;28;20232;-71
2022/04/12 04:26:21;;;;;;;8.33;5.97;;;;;;;8.83;45.34;97815.81;8319045;28;20241;-71
2022/04/12 04:30:24;;;;;;;7.63;5.93;;;;;;;8.79;44.79;97810.75;8318738;28;20245;-71
2022/04/12 04:34:27;;;;;;;9.30;5.80;;;;;;;8.89;45.60;97815.56;8318933;28;20243;-72
2022/04/12 04:38:30;;;;;;;8.47;5.40;;;;;;;8.86;45.08;97805.38;8318729;28;20240;-72
2022/04/12 04:42:34;;;;;;;11.83;6.50;;;;;;;8.79;44.69;97797.84;8318894;28;20472;-71
2022/04/12 04:46:37;;;;;;;9.67;6.03;;;;;;;8.86;44.72;97806.19;8318498;28;20232;-71
2022/04/12 04:50:45;;;;;;;11.87;8.23;;;;;;;8.87;44.77;97805.31;8318504;28;20232;-72
2022/04/12 04:54:48;;;;;;;9.73;6.20;;;;;;;8.90;45.26;97815.50;8318496;28;20454;-71
2022/04/12 04:58:53;;;;;;;10.17;6.43;;;;;;;8.71;44.83;97817.97;8318184;28;20232;-72
2022/04/12 05:02:56;;;;;;;7.57;5.90;;;;;;;8.89;44.99;97824.16;8318133;28;20232;-71
2022/04/12 05:06:59;;;;;;;9.37;6.80;;;;;;;8.98;44.77;97825.53;8317460;28;20316;-72
2022/04/12 05:11:02;;;;;;;8.37;5.77;;;;;;;8.75;45.02;97822.13;8317283;28;20240;-72
2022/04/12 05:15:07;;;;;;;9.53;5.90;;;;;;;8.84;44.93;97820.09;8317774;28;20233;-71
2022/04/12 05:19:10;;;;;;;9.43;5.97;;;;;;;9.01;44.84;97830.59;8317033;28;20229;-71
2022/04/12 05:23:13;;;;;;;10.90;5.97;;;;;;;9.08;44.47;97828.56;8317483;28;20574;-71
2022/04/12 05:27:16;;;;;;;7.17;5.57;;;;;;;9.03;44.63;97830.53;8317490;28;20229;-71
2022/04/12 05:31:20;;;;;;;8.73;5.73;;;;;;;9.29;43.99;97834.59;8317257;28;20248;-71
2022/04/12 05:35:23;;;;;;;10.17;5.90;;;;;;;9.41;43.85;97841.03;8316997;28;20335;-72
2022/04/12 05:39:26;;;;;;;10.87;6.10;;;;;;;9.36;44.00;97844.63;8316835;28;20237;-71
2022/04/12 05:43:29;;;;;;;8.83;5.80;;;;;;;9.73;43.08;97853.44;8317054;28;20267;-71
2022/04/12 05:47:42;;;;;;;8.73;6.07;;;;;;;10.26;42.10;97846.84;8316688;28;20237;-71
2022/04/12 05:51:45;;;;;;;12.27;7.33;;;;;;;10.22;42.11;97853.03;8316581;28;20416;-71
2022/04/12 05:55:48;;;;;;;10.37;8.50;;;;;;;10.15;42.32;97857.66;8316173;28;20225;-71
2022/04/12 05:59:51;;;;;;;7.67;5.93;;;;;;;10.89;40.74;97866.41;8316063;28;20244;-71
2022/04/12 06:03:55;;;;;;;7.13;5.30;;;;;;;11.12;40.40;97873.13;8316023;28;20243;-72
2022/04/12 06:07:59;;;;;;;8.83;5.50;;;;;;;11.10;39.82;97880.09;8315739;28;20232;-72
2022/04/12 06:12:02;;;;;;;9.23;5.40;;;;;;;11.06;39.66;97881.16;8315886;28;20302;-72
2022/04/12 06:16:05;;;;;;;8.40;5.00;;;;;;;11.18;39.94;97882.34;8315729;28;20434;-71
2022/04/12 06:20:12;;;;;;;7.47;4.70;;;;;;;11.11;39.72;97881.78;8315923;28;20370;-71
2022/04/12 06:24:15;;;;;;;6.93;4.63;;;;;;;10.79;40.10;97891.06;8314293;28;20236;-71
2022/04/12 06:28:18;;;;;;;6.73;5.17;;;;;;;10.73;41.00;97877.50;8315646;28;20239;-71
2022/04/12 06:32:21;;;;;;;8.20;4.80;;;;;;;10.68;40.42;97879.47;8315383;28;20247;-71
2022/04/12 06:36:25;;;;;;;9.17;4.87;;;;;;;10.50;41.21;97870.78;8315306;28;20282;-72
2022/04/12 06:40:28;;;;;;;7.57;4.87;;;;;;;10.13;42.05;97869.00;8315074;28;20570;-72
2022/04/12 06:44:32;;;;;;;12.37;4.70;;;;;;;10.49;41.72;97869.13;8315232;28;20228;-72
2022/04/12 06:48:35;;;;;;;8.03;4.87;;;;;;;10.38;40.92;97866.19;8315039;28;20332;-71
2022/04/12 06:52:40;;;;;;;7.00;4.97;;;;;;;11.30;39.58;97863.59;8314617;28;20228;-72
2022/04/12 06:56:43;;;;;;;7.27;4.30;;;;;;;11.81;38.76;97869.69;8314650;28;20432;-71
2022/04/12 07:00:46;;;;;;;7.80;4.10;;;;;;;12.25;37.01;97873.53;8314648;28;20233;-71
2022/04/12 07:04:49;;;;;;;9.60;4.07;;;;;;;11.76;37.86;97863.88;8314831;28;20228;-71
2022/04/12 07:08:53;;;;;;;7.43;4.63;;;;;;;11.84;37.72;97864.38;8314261;28;20237;-71
2022/04/12 07:12:56;;;;;;;6.50;4.10;;;;;;;11.53;37.76;97870.25;8314520;28;20424;-72
2022/04/12 07:16:59;;;;;;;5.93;4.07;;;;;;;12.46;36.32;97874.16;8314418;28;20228;-71
2022/04/12 07:21:02;;;;;;;6.73;3.73;;;;;;;12.40;36.50;97872.72;8314256;28;20240;-72
2022/04/12 07:25:08;;;;;;;11.10;4.00;;;;;;;12.90;35.75;97866.53;8313920;28;20236;-72
2022/04/12 07:29:12;;;;;;;5.43;4.03;;;;;;;12.81;36.11;97861.88;8313632;28;20228;-72
2022/04/12 07:33:15;;;;;;;7.53;4.00;;;;;;;12.43;36.24;97869.13;8315022;28;20236;-72
2022/04/12 07:37:18;;;;;;;9.03;5.20;;;;;;;13.06;35.67;97868.28;8320416;28;20590;-70
2022/04/12 07:41:22;;;;;;;7.10;3.73;;;;;;;13.26;35.56;97872.38;8354140;28;20238;-72
2022/04/12 07:45:25;;;;;;;6.53;3.80;;;;;;;13.35;35.98;97876.25;8361745;28;20232;-70
2022/04/12 07:49:28;;;;;;;8.13;3.80;;;;;;;14.37;39.66;97868.50;8364031;28;20240;-68
2022/04/12 07:53:31;;;;;;;12.13;3.93;;;;;;;14.26;36.30;97861.34;8366390;28;20243;-68
2022/04/12 07:57:35;;;;;;;5.20;3.53;;;;;;;13.70;34.93;97863.78;8361244;28;20232;-67
2022/04/12 08:01:38;;;;;;;4.70;3.30;;;;;;;13.58;35.83;97860.16;8357516;28;20232;-66
2022/04/12 08:05:41;;;;;;;5.17;3.80;;;;;;;14.02;35.22;97866.25;8319254;28;20236;-69
2022/04/12 08:09:46;;;;;;;5.03;3.30;;;;;;;14.31;35.62;97864.50;8318719;28;20428;-59
2022/04/12 08:13:51;;;;;;;6.10;3.23;;;;;;;14.05;34.13;97859.09;8318928;28;20233;-59
2022/04/12 08:17:54;;;;;;;7.03;3.70;;;;;;;14.51;33.58;97862.41;8318912;28;20235;-61
2022/04/12 08:21:57;;;;;;;8.43;3.07;;;;;;;14.41;33.87;97854.34;8318811;28;20422;-59
2022/04/12 08:26:00;;;;;;;6.30;3.10;;;;;;;14.26;34.04;97849.16;8326596;28;20291;-60
2022/04/12 08:30:07;;;;;;;6.73;3.40;;;;;;;14.98;33.24;97846.44;8351535;28;20232;-60
2022/04/12 08:34:10;;;;;;;8.63;3.47;;;;;;;15.17;32.61;97845.25;8350486;28;20231;-60
2022/04/12 08:38:13;;;;;;;6.90;3.20;;;;;;;15.86;32.00;97837.25;8350866;28;20554;-61
2022/04/12 08:42:16;;;;;;;5.77;3.00;;;;;;;15.66;31.35;97828.13;8348452;28;20567;-60
2022/04/12 08:46:25;;;;;;;4.87;3.17;;;;;;;15.94;31.37;97821.91;8349722;28;20338;-60
2022/04/12 08:50:28;;;;;;;7.63;3.10;;;;;;;16.58;30.39;97821.78;8350722;28;20224;-61
2022/04/12 08:54:32;;;;;;;6.87;2.83;;;;;;;16.19;30.77;97819.25;8350294;28;20235;-60
2022/04/12 08:58:35;;;;;;;6.93;3.27;;;;;;;16.84;29.28;97812.09;8347058;28;20557;-60
2022/04/12 09:03:00;;;;;;;7.97;2.37;;;;;;;17.42;29.15;97809.63;8347369;28;20227;-61
2022/04/12 09:07:06;;;;;;;5.23;2.37;;;;;;;17.52;27.58;97817.63;8349711;28;20558;-60
2022/04/12 09:11:09;;;;;;;6.77;2.37;;;;;;;16.96;28.24;97816.47;8347108;28;20222;-64
2022/04/12 09:15:15;;;;;;;5.43;2.47;;;;;;;17.30;28.59;97807.91;8349675;28;20244;-60
2022/04/12 09:19:37;;;;;;;9.87;2.80;;;;;;;17.66;27.26;97812.16;8349568;28;20420;-60
2022/04/12 09:23:48;;;;;;;6.20;2.30;;;;;;;18.23;26.37;97817.47;8348882;28;20228;-60
2022/04/12 09:27:55;;;;;;;5.40;2.13;;;;;;;18.28;26.19;97812.72;8341322;28;20231;-60
2022/04/12 09:31:58;;;;;;;5.10;2.43;;;;;;;18.35;25.30;97820.00;8347130;28;20239;-61
2022/04/12 09:36:03;;;;;;;4.43;2.20;;;;;;;18.93;25.93;97806.66;8349012;28;20304;-61
2022/04/12 09:40:08;;;;;;;5.77;2.47;;;;;;;18.08;25.67;97799.38;8346816;28;20232;-60
2022/04/12 09:44:15;;;;;;;3.80;1.80;;;;;;;19.29;24.89;97796.72;8348584;28;20228;-61
2022/04/12 09:48:31;;;;;;;4.20;2.10;;;;;;;18.60;25.19;97801.47;8348750;28;20235;-60
2022/04/12 09:52:57;;;;;;;2.97;2.00;;;;;;;19.20;24.66;97796.66;8346572;28;20232;-61
2022/04/12 09:57:03;;;;;;;4.13;2.23;;;;;;;19.36;24.63;97778.66;8348313;28;20250;-61
2022/04/12 10:01:27;;;;;;;4.33;2.23;;;;;;;18.54;25.40;97790.53;8380745;28;20223;-61
2022/04/12 10:05:33;;;;;;;7.17;2.33;;;;;;;19.23;24.52;97783.25;8381260;28;20285;-61
2022/04/12 10:09:39;;;;;;;3.33;2.20;;;;;;;19.29;25.00;97791.47;8380454;28;20452;-61
2022/04/12 10:13:43;;;;;;;3.80;1.80;;;;;;;19.84;24.49;97782.59;8381550;28;20293;-60
2022/04/12 10:17:46;;;;;;;4.67;2.37;;;;;;;18.95;24.97;97775.06;8381859;28;20235;-60
2022/04/12 10:21:49;;;;;;;4.97;2.50;;;;;;;18.53;25.53;97770.50;8381465;28;20539;-60
2022/04/12 10:25:54;;;;;;;6.97;1.97;;;;;;;19.30;24.21;97774.75;8381258;28;20234;-60
2022/04/12 10:30:27;;;;;;;7.83;2.27;;;;;;;19.47;24.33;97769.91;8381242;28;20537;-62
2022/04/12 10:34:29;;;;;;;5.10;2.50;;;;;;;20.19;23.53;97770.84;8374449;28;20228;-61
2022/04/12 10:38:41;;;;;;;4.43;2.00;;;;;;;20.18;22.62;97761.25;8378502;28;20565;-60
2022/04/12 10:42:46;;;;;;;4.43;1.87;;;;;;;20.99;22.85;97758.53;8379958;28;20231;-61
2022/04/12 10:46:51;;;;;;;6.43;2.10;;;;;;;20.34;22.24;97772.13;8375616;28;20464;-60
2022/04/12 10:50:56;;;;;;;3.10;2.00;;;;;;;20.59;22.22;97765.53;8346829;28;20228;-61
2022/04/12 10:54:59;;;;;;;3.23;1.93;;;;;;;20.34;21.32;97752.91;8344226;28;20243;-61
2022/04/12 10:59:03;;;;;;;3.37;1.70;;;;;;;20.05;22.32;97756.25;8346594;28;20230;-61
2022/04/12 11:03:06;;;;;;;4.20;1.77;;;;;;;19.99;21.70;97748.88;8346327;28;20548;-61
2022/04/12 11:07:09;;;;;;;3.83;1.83;;;;;;;20.01;22.05;97739.06;8378425;28;20227;-62
2022/04/12 11:11:22;;;;;;;6.33;2.17;;;;;;;20.13;21.61;97738.03;8378319;28;20427;-61
2022/04/12 11:15:28;;;;;;;3.53;1.40;;;;;;;20.39;20.60;97741.00;8378153;28;20234;-61
2022/04/12 11:19:42;;;;;;;4.70;1.60;;;;;;;21.24;19.67;97746.59;8379078;28;20233;-61
2022/04/12 11:23:46;;;;;;;3.17;1.47;;;;;;;21.00;20.70;97726.81;8377843;28;20235;-61
2022/04/12 11:27:55;;;;;;;3.03;1.50;;;;;;;20.62;20.99;97720.56;8379154;28;20550;-61
2022/04/12 11:32:00;;;;;;;3.67;1.63;;;;;;;21.32;20.46;97720.38;8377014;28;20228;-61
2022/04/12 11:36:04;;;;;;;9.77;1.60;;;;;;;21.43;19.59;97719.41;8379128;28;20247;-60
2022/04/12 11:40:08;;;;;;;4.73;1.60;;;;;;;21.12;21.17;97722.22;8379326;28;20448;-60
2022/04/12 11:44:11;;;;;;;4.20;1.73;;;;;;;20.88;20.83;97714.75;8379146;28;20425;-61
2022/04/12 11:48:17;;;;;;;4.07;1.67;;;;;;;21.23;19.84;97726.53;8379600;28;20243;-62
2022/04/12 11:52:20;;;;;;;5.97;1.57;;;;;;;21.59;20.59;97717.03;8379450;28;20235;-60
2022/04/12 11:56:22;;;;;;;2.00;1.30;;;;;;;21.58;19.89;97709.25;8379241;28;20434;-60
2022/04/12 12:00:26;;;;;;;3.07;1.37;;;;;;;21.13;20.44;97712.50;8379510;28;20235;-60
2022/04/12 12:04:32;;;;;;;3.40;1.30;;;;;;;21.22;20.42;97712.50;8378974;28;20260;-60
2022/04/12 12:08:35;;;;;;;2.87;1.27;;;;;;;21.83;20.22;97713.06;8379205;28;20232;-60
2022/04/12 12:12:39;;;;;;;3.03;1.43;;;;;;;22.34;19.96;97709.06;8379147;28;20298;-60
2022/04/12 12:17:08;;;;;;;5.37;1.50;;;;;;;22.73;19.55;97706.19;8379282;28;20469;-61
2022/04/12 12:21:13;;;;;;;4.80;1.40;;;;;;;22.51;18.98;97701.34;8382321;28;20233;-60
2022/04/12 12:25:19;;;;;;;6.37;1.67;;;;;;;22.58;19.54;97691.81;8385211;28;20244;-60
2022/04/12 12:29:23;;;;;;;3.17;1.50;;;;;;;22.68;18.48;97683.84;8384968;28;20427;-60
2022/04/12 12:33:26;;;;;;;5.57;1.40;;;;;;;22.45;18.10;97685.13;8384856;28;20250;-60
2022/04/12 12:37:30;;;;;;;3.40;1.73;;;;;;;22.37;17.71;97677.13;8384725;28;20401;-61
2022/04/12 12:41:34;;;;;;;5.27;1.37;;;;;;;22.64;18.20;97678.03;8384198;28;20219;-60
2022/04/12 12:45:42;;;;;;;4.23;1.57;;;;;;;22.38;17.58;97675.31;8384136;28;20231;-60
2022/04/12 12:49:45;;;;;;;5.73;1.30;;;;;;;23.08;17.93;97675.47;8383877;28;20232;-60
2022/04/12 12:54:00;;;;;;;3.80;1.30;;;;;;;22.67;18.40;97666.34;8384259;28;20853;-60
2022/04/12 12:58:04;;;;;;;2.83;1.40;;;;;;;23.12;19.56;97676.81;8384294;28;20254;-60
2022/04/12 13:02:10;;;;;;;3.37;1.20;;;;;;;23.16;18.50;97677.31;8384114;28;20490;-60
2022/04/12 13:06:13;;;;;;;3.70;1.10;;;;;;;22.89;17.45;97665.06;8383809;28;20238;-61
2022/04/12 13:10:19;;;;;;;2.37;1.30;;;;;;;22.21;18.81;97666.38;8383689;28;20242;-61
2022/04/12 13:14:22;;;;;;;3.43;1.43;;;;;;;22.63;18.35;97658.72;8383658;28;20239;-60
2022/04/12 13:18:25;;;;;;;3.43;1.27;;;;;;;23.04;18.16;97668.81;8383734;28;20233;-61
2022/04/12 13:22:28;;;;;;;1.77;1.23;;;;;;;22.88;18.19;97664.19;8383667;28;20242;-62
2022/04/12 13:26:33;;;;;;;4.93;1.40;;;;;;;22.29;18.01;97661.19;8383443;28;20227;-61
2022/04/12 13:30:43;;;;;;;2.40;1.50;;;;;;;22.40;18.10;97655.72;8382865;28;20231;-60
2022/04/12 13:34:46;;;;;;;4.53;1.40;;;;;;;22.80;17.89;97650.94;8383213;28;20515;-60
2022/04/12 13:38:49;;;;;;;2.57;1.10;;;;;;;22.46;18.06;97641.09;8382549;28;20231;-61
2022/04/12 13:42:54;;;;;;;2.93;1.40;;;;;;;22.55;19.18;97639.38;8382289;28;20236;-60
2022/04/12 13:46:57;;;;;;;3.37;1.33;;;;;;;22.50;18.52;97636.34;8382590;28;20237;-61
2022/04/12 13:51:00;;;;;;;2.57;1.27;;;;;;;22.77;18.21;97638.91;8382544;28;20236;-60
2022/04/12 13:55:04;;;;;;;2.50;1.30;;;;;;;22.42;18.45;97630.00;8382058;28;20234;-60
2022/04/12 13:59:09;;;;;;;3.53;1.47;;;;;;;22.61;18.12;97626.38;8382000;28;20262;-60
2022/04/12 14:03:13;;;;;;;3.77;1.30;;;;;;;22.73;17.59;97626.13;8381657;28;20231;-61
2022/04/12 14:07:17;;;;;;;3.93;1.40;;;;;;;22.54;18.01;97628.00;8381916;28;20543;-61
2022/04/12 14:11:19;;;;;;;2.23;0.97;;;;;;;22.41;18.43;97622.25;8381793;28;20245;-59
2022/04/12 14:15:24;;;;;;;3.63;1.30;;;;;;;22.59;18.63;97630.16;8381889;28;20238;-60
2022/04/12 14:19:27;;;;;;;4.70;1.47;;;;;;;22.38;18.65;97618.09;8381536;28;20242;-60
2022/04/12 14:23:30;;;;;;;2.07;1.00;;;;;;;22.22;19.18;97610.84;8381263;28;20243;-60
2022/04/12 14:27:33;;;;;;;4.47;1.30;;;;;;;22.21;18.91;97603.91;8381482;28;20300;-60
2022/04/12 14:31:38;;;;;;;2.07;1.20;;;;;;;22.34;18.98;97613.28;8381195;28;20239;-60
2022/04/12 14:35:41;;;;;;;3.70;1.43;;;;;;;22.36;18.75;97614.78;8381373;28;20420;-60
2022/04/12 14:39:45;;;;;;;4.13;1.17;;;;;;;22.06;18.56;97614.13;8380808;28;20537;-60
2022/04/12 14:43:48;;;;;;;3.30;1.10;;;;;;;22.39;18.24;97611.84;8379782;28;20231;-60
2022/04/12 14:47:53;;;;;;;3.60;1.50;;;;;;;22.18;18.34;97614.75;8380935;28;20227;-60
2022/04/12 14:51:56;;;;;;;2.77;1.47;;;;;;;21.97;18.45;97608.91;8380819;28;20235;-62
2022/04/12 14:55:59;;;;;;;3.50;1.33;;;;;;;21.93;18.62;97613.66;8380307;28;20241;-62
2022/04/12 15:00:03;;;;;;;2.47;1.00;;;;;;;22.04;18.32;97605.53;8380462;28;20247;-60
2022/04/12 15:04:07;;;;;;;4.30;1.23;;;;;;;22.01;18.54;97616.41;8380256;28;20239;-62
2022/04/12 15:08:10;;;;;;;6.67;1.20;;;;;;;21.72;18.90;97610.47;8379970;28;20241;-61
2022/04/12 15:12:13;;;;;;;4.60;1.67;;;;;;;21.97;19.08;97607.13;8380058;28;20587;-62
2022/04/12 15:16:16;;;;;;;3.93;1.10;;;;;;;22.11;19.07;97611.06;8380226;28;20312;-61
2022/04/12 15:20:21;;;;;;;4.03;1.00;;;;;;;21.76;18.86;97602.13;8379730;28;20257;-61
2022/04/12 15:24:25;;;;;;;3.03;1.30;;;;;;;22.03;19.50;97603.06;8380019;28;20336;-61
2022/04/12 15:28:28;;;;;;;3.97;1.63;;;;;;;21.30;18.90;97603.81;8380004;28;20255;-62
2022/04/12 15:32:31;;;;;;;5.60;1.40;;;;;;;21.66;18.87;97602.16;8379707;28;20236;-62
2022/04/12 15:36:35;;;;;;;4.57;1.30;;;;;;;21.65;19.18;97595.25;8379752;28;20302;-61
2022/04/12 15:40:38;;;;;;;4.10;2.27;;;;;;;21.56;18.66;97592.66;8379937;28;20239;-61
2022/04/12 15:44:41;;;;;;;5.10;1.40;;;;;;;21.28;18.84;97598.72;8379238;28;20232;-62
2022/04/12 15:48:44;;;;;;;2.50;1.10;;;;;;;21.23;18.54;97600.94;8379471;28;20232;-62
2022/04/12 15:52:49;;;;;;;3.03;1.10;;;;;;;21.36;18.95;97595.34;8379618;28;20239;-61
2022/04/12 15:56:53;;;;;;;6.53;2.10;;;;;;;21.07;19.31;97590.19;8384772;28;20239;-61
2022/04/12 16:00:56;;;;;;;1.70;1.10;;;;;;;21.21;19.34;97599.41;8386163;28;20230;-63
2022/04/12 16:05:00;;;;;;;4.20;1.00;;;;;;;20.85;19.59;97599.25;8385865;28;20235;-61
2022/04/12 16:09:05;;;;;;;2.83;1.00;;;;;;;21.03;19.69;97602.78;8385810;28;20239;-62
2022/04/12 16:13:08;;;;;;;2.20;1.00;;;;;;;21.02;20.13;97595.88;8385663;28;20442;-61
2022/04/12 16:17:11;;;;;;;4.00;1.10;;;;;;;20.80;19.58;97602.28;8384877;28;20220;-62
2022/04/12 16:21:15;;;;;;;4.20;1.10;;;;;;;20.73;20.09;97606.44;8385321;28;20235;-59
2022/04/12 16:25:20;;;;;;;2.10;1.20;;;;;;;20.78;20.36;97606.88;8385012;28;20239;-59
2022/04/12 16:29:24;;;;;;;3.13;1.10;;;;;;;20.63;20.40;97605.66;8385047;28;20239;-59
2022/04/12 16:33:27;;;;;;;3.17;1.23;;;;;;;20.56;20.58;97615.03;8385062;28;20247;-58
2022/04/12 16:37:30;;;;;;;3.33;1.20;;;;;;;20.51;20.65;97605.75;8384494;28;20236;-59
2022/04/12 16:41:34;;;;;;;3.13;1.20;;;;;;;20.33;20.34;97603.97;8384007;28;20322;-59
2022/04/12 16:45:37;;;;;;;3.83;1.17;;;;;;;20.18;20.83;97609.66;8384355;28;20236;-59
2022/04/12 16:49:41;;;;;;;4.87;2.40;;;;;;;20.06;20.86;97615.97;8384362;28;20228;-59
2022/04/12 16:53:44;;;;;;;3.73;1.90;;;;;;;20.11;20.69;97603.25;8383945;28;20235;-59
2022/04/12 16:57:49;;;;;;;3.37;1.40;;;;;;;20.10;20.88;97609.47;8384008;28;20223;-59
2022/04/12 17:01:52;;;;;;;3.13;1.47;;;;;;;20.05;21.39;97614.34;8383705;28;20229;-58
2022/04/12 17:05:56;;;;;;;3.73;1.70;;;;;;;19.86;21.50;97615.94;8382755;28;20296;-59
2022/04/12 17:09:59;;;;;;;4.83;2.40;;;;;;;19.88;21.52;97611.38;8383585;28;20244;-59
2022/04/12 17:14:03;;;;;;;3.67;2.10;;;;;;;19.80;21.84;97619.13;8383403;28;20242;-59
2022/04/12 17:18:06;;;;;;;4.77;1.97;;;;;;;19.57;21.96;97618.44;8383384;28;20244;-61
2022/04/12 17:22:09;;;;;;;4.57;1.70;;;;;;;19.49;22.12;97620.91;8383126;28;20492;-62
2022/04/12 17:26:13;;;;;;;5.83;3.00;;;;;;;19.61;22.24;97619.88;8383019;28;20239;-62
2022/04/12 17:30:18;;;;;;;3.63;2.13;;;;;;;19.56;22.41;97624.69;8383092;28;20266;-62
2022/04/12 17:34:22;;;;;;;3.17;1.50;;;;;;;19.54;23.14;97629.22;8383275;28;20577;-61
2022/04/12 17:38:25;;;;;;;6.40;1.60;;;;;;;19.44;22.72;97621.31;8382946;28;20235;-61
2022/04/12 17:42:28;;;;;;;4.37;1.47;;;;;;;19.25;23.02;97619.44;8382724;28;20569;-61
2022/04/12 17:46:32;;;;;;;3.00;1.97;;;;;;;19.28;23.48;97623.59;8382709;28;20527;-61
2022/04/12 17:50:35;;;;;;;4.50;2.70;;;;;;;19.17;23.51;97627.13;8382781;28;20273;-61
2022/04/12 17:54:39;;;;;;;4.27;2.07;;;;;;;19.10;24.97;97632.06;8382419;28;20236;-61
2022/04/12 17:58:42;;;;;;;4.30;1.57;;;;;;;18.94;24.28;97629.91;8382065;28;20231;-62
2022/04/12 18:02:46;;;;;;;2.90;1.70;;;;;;;18.98;24.29;97629.63;8382284;28;20232;-61
2022/04/12 18:06:49;;;;;;;3.67;1.97;;;;;;;18.91;24.46;97635.41;8382286;28;20238;-61
2022/04/12 18:10:52;;;;;;;5.17;3.80;;;;;;;18.79;24.83;97630.31;8381993;28;20239;-61
2022/04/12 18:14:56;;;;;;;6.20;3.87;;;;;;;18.74;26.75;97634.16;8381645;28;20403;-61
2022/04/12 18:19:00;;;;;;;6.30;2.90;;;;;;;18.71;26.67;97636.19;8381653;28;20227;-61
2022/04/12 18:23:03;;;;;;;6.37;3.00;;;;;;;18.67;26.64;97632.16;8381389;28;20531;-60
2022/04/12 18:27:06;;;;;;;5.20;2.63;;;;;;;18.62;27.49;97634.34;8381191;28;20534;-60
2022/04/12 18:31:09;;;;;;;4.40;3.00;;;;;;;18.52;27.10;97637.72;8347669;28;20541;-63
2022/04/12 18:35:13;;;;;;;9.53;5.70;;;;;;;18.40;27.56;97630.03;8348055;28;20232;-61
2022/04/12 18:39:16;;;;;;;12.60;5.97;;;;;;;18.32;27.03;97638.53;8348009;28;20446;-62
2022/04/12 18:43:19;;;;;;;19.13;14.70;;;;;;;18.25;27.36;97640.78;8347545;28;20232;-61
2022/04/12 18:47:25;;;;;;;4.13;2.63;;;;;;;18.07;26.19;97635.25;8347777;28;20227;-61
2022/04/12 18:51:29;;;;;;;6.23;3.00;;;;;;;18.11;27.54;97644.53;8347781;28;20228;-61
2022/04/12 18:55:33;;;;;;;5.40;3.47;;;;;;;18.02;26.87;97653.13;8347320;28;20228;-62
2022/04/12 18:59:38;;;;;;;11.10;6.97;;;;;;;17.99;27.05;97648.13;8347344;28;20228;-61
2022/04/12 19:03:41;;;;;;;14.80;8.87;;;;;;;17.95;27.53;97644.09;8347072;28;20229;-62
2022/04/12 19:07:49;;;;;;;18.47;10.37;;;;;;;17.89;27.81;97647.19;8347477;28;20235;-61
2022/04/12 19:11:53;;;;;;;11.80;7.00;;;;;;;17.76;28.62;97649.91;8347270;28;20243;-61
2022/04/12 19:15:56;;;;;;;8.43;5.40;;;;;;;17.69;28.39;97646.97;8347140;28;20230;-61